sensor_id;sensor_type;location;lat;lon;timestamp;P1;durP1;ratioP1;P2;durP2;ratioP2
18818;SDS011;9537;45.594;9.294;2022-08-25T00:00:25;4.60;;;2.10;;
18818;SDS011;9537;45.594;9.294;2022-08-25T00:01:27;4.05;;;2.05;;
18818;SDS011;9537;45.594;9.294;2022-08-25T00:02:31;2.55;;;2.17;;
18818;SDS011;9537;45.594;9.294;2022-08-25T00:03:32;3.65;;;1.95;;
18818;SDS011;9537;45.594;9.294;2022-08-25T00:04:34;2.72;;;2.10;;
18818;SDS011;9537;45.594;9.294;2022-08-25T00:05:36;2.88;;;2.20;;
18818;SDS011;9537;45.594;9.294;2022-08-25T00:06:38;5.53;;;2.42;;
18818;SDS011;9537;45.594;9.294;2022-08-25T00:07:41;2.45;;;1.98;;
18818;SDS011;9537;45.594;9.294;2022-08-25T00:08:42;2.67;;;1.88;;
18818;SDS011;9537;45.594;9.294;2022-08-25T00:09:44;3.20;;;2.38;;
18818;SDS011;9537;45.594;9.294;2022-08-25T00:10:46;3.53;;;2.13;;
18818;SDS011;9537;45.594;9.294;2022-08-25T00:11:48;1.83;;;1.70;;
18818;SDS011;9537;45.594;9.294;2022-08-25T00:12:49;4.95;;;2.15;;
18818;SDS011;9537;45.594;9.294;2022-08-25T00:13:52;5.43;;;2.35;;
18818;SDS011;9537;45.594;9.294;2022-08-25T00:14:54;5.13;;;2.25;;
18818;SDS011;9537;45.594;9.294;2022-08-25T00:15:58;4.22;;;2.22;;
18818;SDS011;9537;45.594;9.294;2022-08-25T00:16:59;2.90;;;2.10;;
18818;SDS011;9537;45.594;9.294;2022-08-25T00:18:02;6.93;;;2.53;;
18818;SDS011;9537;45.594;9.294;2022-08-25T00:19:06;4.97;;;2.05;;
18818;SDS011;9537;45.594;9.294;2022-08-25T00:20:12;4.95;;;2.30;;
18818;SDS011;9537;45.594;9.294;2022-08-25T00:21:13;4.93;;;2.10;;
18818;SDS011;9537;45.594;9.294;2022-08-25T00:22:15;2.70;;;2.22;;
18818;SDS011;9537;45.594;9.294;2022-08-25T00:23:17;3.35;;;2.00;;
18818;SDS011;9537;45.594;9.294;2022-08-25T00:24:20;3.05;;;2.10;;
18818;SDS011;9537;45.594;9.294;2022-08-25T00:25:22;2.60;;;1.98;;
18818;SDS011;9537;45.594;9.294;2022-08-25T00:26:24;2.53;;;1.98;;
18818;SDS011;9537;45.594;9.294;2022-08-25T00:27:25;2.25;;;2.05;;
18818;SDS011;9537;45.594;9.294;2022-08-25T00:28:28;4.47;;;2.22;;
18818;SDS011;9537;45.594;9.294;2022-08-25T00:29:29;3.58;;;2.28;;
18818;SDS011;9537;45.594;9.294;2022-08-25T00:30:32;6.10;;;2.58;;
18818;SDS011;9537;45.594;9.294;2022-08-25T00:31:34;2.75;;;2.22;;
18818;SDS011;9537;45.594;9.294;2022-08-25T00:32:37;3.03;;;2.38;;
18818;SDS011;9537;45.594;9.294;2022-08-25T00:33:38;3.13;;;2.47;;
18818;SDS011;9537;45.594;9.294;2022-08-25T00:34:40;2.97;;;2.42;;
18818;SDS011;9537;45.594;9.294;2022-08-25T00:35:43;4.28;;;2.30;;
18818;SDS011;9537;45.594;9.294;2022-08-25T00:36:45;2.80;;;2.20;;
18818;SDS011;9537;45.594;9.294;2022-08-25T00:37:46;3.08;;;2.60;;
18818;SDS011;9537;45.594;9.294;2022-08-25T00:38:48;2.50;;;2.00;;
18818;SDS011;9537;45.594;9.294;2022-08-25T00:39:50;3.20;;;2.10;;
18818;SDS011;9537;45.594;9.294;2022-08-25T00:40:52;2.45;;;2.25;;
18818;SDS011;9537;45.594;9.294;2022-08-25T00:42:05;3.08;;;2.28;;
18818;SDS011;9537;45.594;9.294;2022-08-25T00:43:09;3.67;;;2.22;;
18818;SDS011;9537;45.594;9.294;2022-08-25T00:44:11;2.30;;;1.90;;
18818;SDS011;9537;45.594;9.294;2022-08-25T00:45:17;2.65;;;2.15;;
18818;SDS011;9537;45.594;9.294;2022-08-25T00:46:20;4.25;;;2.17;;
18818;SDS011;9537;45.594;9.294;2022-08-25T00:47:26;3.15;;;1.95;;
18818;SDS011;9537;45.594;9.294;2022-08-25T00:48:27;4.47;;;2.55;;
18818;SDS011;9537;45.594;9.294;2022-08-25T00:49:31;3.53;;;2.35;;
18818;SDS011;9537;45.594;9.294;2022-08-25T00:50:35;3.00;;;2.17;;
18818;SDS011;9537;45.594;9.294;2022-08-25T00:51:38;6.00;;;2.20;;
18818;SDS011;9537;45.594;9.294;2022-08-25T00:52:43;4.68;;;2.00;;
18818;SDS011;9537;45.594;9.294;2022-08-25T00:53:48;3.08;;;2.20;;
18818;SDS011;9537;45.594;9.294;2022-08-25T00:54:51;2.50;;;2.10;;
18818;SDS011;9537;45.594;9.294;2022-08-25T00:55:55;4.10;;;1.95;;
18818;SDS011;9537;45.594;9.294;2022-08-25T00:56:58;3.67;;;2.60;;
18818;SDS011;9537;45.594;9.294;2022-08-25T00:58:03;3.70;;;2.15;;
18818;SDS011;9537;45.594;9.294;2022-08-25T00:59:06;3.28;;;2.10;;
18818;SDS011;9537;45.594;9.294;2022-08-25T01:00:11;6.00;;;2.40;;
18818;SDS011;9537;45.594;9.294;2022-08-25T01:01:18;2.88;;;2.20;;
18818;SDS011;9537;45.594;9.294;2022-08-25T01:02:21;3.53;;;2.20;;
18818;SDS011;9537;45.594;9.294;2022-08-25T01:03:24;4.88;;;2.45;;
18818;SDS011;9537;45.594;9.294;2022-08-25T01:04:29;3.10;;;2.05;;
18818;SDS011;9537;45.594;9.294;2022-08-25T01:05:31;2.42;;;1.95;;
18818;SDS011;9537;45.594;9.294;2022-08-25T01:06:33;5.15;;;2.25;;
18818;SDS011;9537;45.594;9.294;2022-08-25T01:07:39;3.42;;;2.30;;
18818;SDS011;9537;45.594;9.294;2022-08-25T01:08:42;3.50;;;2.20;;
18818;SDS011;9537;45.594;9.294;2022-08-25T01:09:44;6.72;;;2.30;;
18818;SDS011;9537;45.594;9.294;2022-08-25T01:10:47;8.63;;;3.78;;
18818;SDS011;9537;45.594;9.294;2022-08-25T01:11:50;4.90;;;2.45;;
18818;SDS011;9537;45.594;9.294;2022-08-25T01:12:52;3.30;;;2.00;;
18818;SDS011;9537;45.594;9.294;2022-08-25T01:14:00;3.53;;;2.63;;
18818;SDS011;9537;45.594;9.294;2022-08-25T01:15:06;3.80;;;2.15;;
18818;SDS011;9537;45.594;9.294;2022-08-25T01:16:10;5.00;;;2.38;;
18818;SDS011;9537;45.594;9.294;2022-08-25T01:17:13;2.95;;;2.28;;
18818;SDS011;9537;45.594;9.294;2022-08-25T01:18:15;4.78;;;2.38;;
18818;SDS011;9537;45.594;9.294;2022-08-25T01:19:18;3.00;;;2.22;;
18818;SDS011;9537;45.594;9.294;2022-08-25T01:20:21;6.93;;;2.10;;
18818;SDS011;9537;45.594;9.294;2022-08-25T01:21:27;2.15;;;1.90;;
18818;SDS011;9537;45.594;9.294;2022-08-25T01:22:30;2.22;;;1.98;;
18818;SDS011;9537;45.594;9.294;2022-08-25T01:23:31;2.78;;;1.90;;
18818;SDS011;9537;45.594;9.294;2022-08-25T01:24:34;3.47;;;2.50;;
18818;SDS011;9537;45.594;9.294;2022-08-25T01:25:42;4.65;;;2.05;;
18818;SDS011;9537;45.594;9.294;2022-08-25T01:26:49;3.78;;;2.70;;
18818;SDS011;9537;45.594;9.294;2022-08-25T01:27:50;2.50;;;1.92;;
18818;SDS011;9537;45.594;9.294;2022-08-25T01:28:52;2.45;;;2.13;;
18818;SDS011;9537;45.594;9.294;2022-08-25T01:30:13;2.38;;;1.70;;
18818;SDS011;9537;45.594;9.294;2022-08-25T01:31:15;2.50;;;2.30;;
18818;SDS011;9537;45.594;9.294;2022-08-25T01:32:16;3.83;;;2.05;;
18818;SDS011;9537;45.594;9.294;2022-08-25T01:33:18;3.45;;;2.20;;
18818;SDS011;9537;45.594;9.294;2022-08-25T01:34:20;3.67;;;2.30;;
18818;SDS011;9537;45.594;9.294;2022-08-25T01:35:22;2.08;;;1.80;;
18818;SDS011;9537;45.594;9.294;2022-08-25T01:36:26;2.42;;;2.20;;
18818;SDS011;9537;45.594;9.294;2022-08-25T01:37:29;3.85;;;2.20;;
18818;SDS011;9537;45.594;9.294;2022-08-25T01:38:35;5.82;;;2.38;;
18818;SDS011;9537;45.594;9.294;2022-08-25T01:39:36;3.05;;;2.30;;
18818;SDS011;9537;45.594;9.294;2022-08-25T01:40:38;4.07;;;2.45;;
18818;SDS011;9537;45.594;9.294;2022-08-25T01:41:44;2.85;;;2.20;;
18818;SDS011;9537;45.594;9.294;2022-08-25T01:42:56;2.78;;;2.10;;
18818;SDS011;9537;45.594;9.294;2022-08-25T01:44:07;2.55;;;1.90;;
18818;SDS011;9537;45.594;9.294;2022-08-25T01:45:08;2.20;;;2.00;;
18818;SDS011;9537;45.594;9.294;2022-08-25T01:46:10;4.68;;;2.60;;
18818;SDS011;9537;45.594;9.294;2022-08-25T01:47:12;3.38;;;2.35;;
18818;SDS011;9537;45.594;9.294;2022-08-25T01:48:15;5.40;;;2.72;;
18818;SDS011;9537;45.594;9.294;2022-08-25T01:49:17;3.55;;;2.67;;
18818;SDS011;9537;45.594;9.294;2022-08-25T01:50:19;2.75;;;2.20;;
18818;SDS011;9537;45.594;9.294;2022-08-25T01:51:22;3.45;;;2.30;;
18818;SDS011;9537;45.594;9.294;2022-08-25T01:52:28;3.30;;;1.92;;
18818;SDS011;9537;45.594;9.294;2022-08-25T01:53:32;4.78;;;2.40;;
18818;SDS011;9537;45.594;9.294;2022-08-25T01:54:34;6.10;;;2.55;;
18818;SDS011;9537;45.594;9.294;2022-08-25T01:55:35;5.22;;;2.20;;
18818;SDS011;9537;45.594;9.294;2022-08-25T01:56:52;4.45;;;2.10;;
18818;SDS011;9537;45.594;9.294;2022-08-25T01:57:53;2.72;;;2.28;;
18818;SDS011;9537;45.594;9.294;2022-08-25T01:58:56;2.83;;;2.40;;
18818;SDS011;9537;45.594;9.294;2022-08-25T01:59:57;4.50;;;2.45;;
18818;SDS011;9537;45.594;9.294;2022-08-25T02:01:00;4.28;;;2.30;;
18818;SDS011;9537;45.594;9.294;2022-08-25T02:02:04;2.22;;;2.03;;
18818;SDS011;9537;45.594;9.294;2022-08-25T02:03:06;4.97;;;2.17;;
18818;SDS011;9537;45.594;9.294;2022-08-25T02:04:07;2.83;;;2.15;;
18818;SDS011;9537;45.594;9.294;2022-08-25T02:05:10;3.90;;;2.28;;
18818;SDS011;9537;45.594;9.294;2022-08-25T02:06:14;4.15;;;2.42;;
18818;SDS011;9537;45.594;9.294;2022-08-25T02:07:18;4.50;;;2.20;;
18818;SDS011;9537;45.594;9.294;2022-08-25T02:08:20;2.50;;;2.30;;
18818;SDS011;9537;45.594;9.294;2022-08-25T02:09:22;2.63;;;1.80;;
18818;SDS011;9537;45.594;9.294;2022-08-25T02:10:24;2.90;;;2.35;;
18818;SDS011;9537;45.594;9.294;2022-08-25T02:11:25;3.42;;;2.13;;
18818;SDS011;9537;45.594;9.294;2022-08-25T02:12:28;3.95;;;2.40;;
18818;SDS011;9537;45.594;9.294;2022-08-25T02:13:31;3.28;;;2.20;;
18818;SDS011;9537;45.594;9.294;2022-08-25T02:14:33;4.18;;;2.10;;
18818;SDS011;9537;45.594;9.294;2022-08-25T02:15:38;4.35;;;2.00;;
18818;SDS011;9537;45.594;9.294;2022-08-25T02:16:44;3.95;;;2.72;;
18818;SDS011;9537;45.594;9.294;2022-08-25T02:17:46;6.40;;;2.45;;
18818;SDS011;9537;45.594;9.294;2022-08-25T02:18:48;2.40;;;2.17;;
18818;SDS011;9537;45.594;9.294;2022-08-25T02:19:49;3.03;;;2.47;;
18818;SDS011;9537;45.594;9.294;2022-08-25T02:20:51;4.65;;;2.72;;
18818;SDS011;9537;45.594;9.294;2022-08-25T02:21:53;2.60;;;2.40;;
18818;SDS011;9537;45.594;9.294;2022-08-25T02:22:55;5.55;;;2.63;;
18818;SDS011;9537;45.594;9.294;2022-08-25T02:23:58;2.25;;;2.00;;
18818;SDS011;9537;45.594;9.294;2022-08-25T02:25:00;3.25;;;2.25;;
18818;SDS011;9537;45.594;9.294;2022-08-25T02:26:02;3.95;;;2.47;;
18818;SDS011;9537;45.594;9.294;2022-08-25T02:27:04;3.33;;;2.25;;
18818;SDS011;9537;45.594;9.294;2022-08-25T02:28:05;4.97;;;2.60;;
18818;SDS011;9537;45.594;9.294;2022-08-25T02:29:09;2.50;;;2.10;;
18818;SDS011;9537;45.594;9.294;2022-08-25T02:30:11;4.47;;;2.53;;
18818;SDS011;9537;45.594;9.294;2022-08-25T02:31:14;2.75;;;2.20;;
18818;SDS011;9537;45.594;9.294;2022-08-25T02:32:16;4.05;;;2.58;;
18818;SDS011;9537;45.594;9.294;2022-08-25T02:33:18;3.63;;;2.25;;
18818;SDS011;9537;45.594;9.294;2022-08-25T02:34:19;4.45;;;2.63;;
18818;SDS011;9537;45.594;9.294;2022-08-25T02:35:22;2.47;;;2.13;;
18818;SDS011;9537;45.594;9.294;2022-08-25T02:36:23;4.50;;;2.42;;
18818;SDS011;9537;45.594;9.294;2022-08-25T02:37:25;3.03;;;2.40;;
18818;SDS011;9537;45.594;9.294;2022-08-25T02:38:27;3.05;;;2.28;;
18818;SDS011;9537;45.594;9.294;2022-08-25T02:39:31;3.08;;;2.50;;
18818;SDS011;9537;45.594;9.294;2022-08-25T02:40:33;4.85;;;2.47;;
18818;SDS011;9537;45.594;9.294;2022-08-25T02:41:34;2.53;;;1.90;;
18818;SDS011;9537;45.594;9.294;2022-08-25T02:42:36;3.28;;;2.28;;
18818;SDS011;9537;45.594;9.294;2022-08-25T02:43:38;3.15;;;2.17;;
18818;SDS011;9537;45.594;9.294;2022-08-25T02:44:41;2.33;;;2.10;;
18818;SDS011;9537;45.594;9.294;2022-08-25T02:45:42;2.58;;;2.28;;
18818;SDS011;9537;45.594;9.294;2022-08-25T02:46:44;5.82;;;2.40;;
18818;SDS011;9537;45.594;9.294;2022-08-25T02:47:45;2.55;;;2.05;;
18818;SDS011;9537;45.594;9.294;2022-08-25T02:48:47;6.60;;;2.15;;
18818;SDS011;9537;45.594;9.294;2022-08-25T02:49:48;2.88;;;2.58;;
18818;SDS011;9537;45.594;9.294;2022-08-25T02:50:50;4.55;;;2.35;;
18818;SDS011;9537;45.594;9.294;2022-08-25T02:51:52;3.00;;;2.10;;
18818;SDS011;9537;45.594;9.294;2022-08-25T02:52:54;3.13;;;2.63;;
18818;SDS011;9537;45.594;9.294;2022-08-25T02:53:55;3.60;;;2.20;;
18818;SDS011;9537;45.594;9.294;2022-08-25T02:54:59;3.17;;;2.40;;
18818;SDS011;9537;45.594;9.294;2022-08-25T02:56:03;3.20;;;2.15;;
18818;SDS011;9537;45.594;9.294;2022-08-25T02:57:06;4.47;;;2.22;;
18818;SDS011;9537;45.594;9.294;2022-08-25T02:58:07;5.18;;;3.15;;
18818;SDS011;9537;45.594;9.294;2022-08-25T02:59:09;3.97;;;2.28;;
18818;SDS011;9537;45.594;9.294;2022-08-25T03:00:11;4.10;;;2.38;;
18818;SDS011;9537;45.594;9.294;2022-08-25T03:01:15;4.03;;;2.17;;
18818;SDS011;9537;45.594;9.294;2022-08-25T03:02:17;2.80;;;2.28;;
18818;SDS011;9537;45.594;9.294;2022-08-25T03:03:19;5.07;;;2.75;;
18818;SDS011;9537;45.594;9.294;2022-08-25T03:04:20;6.15;;;3.75;;
18818;SDS011;9537;45.594;9.294;2022-08-25T03:05:22;4.80;;;2.70;;
18818;SDS011;9537;45.594;9.294;2022-08-25T03:06:23;8.00;;;3.10;;
18818;SDS011;9537;45.594;9.294;2022-08-25T03:07:27;2.45;;;2.15;;
18818;SDS011;9537;45.594;9.294;2022-08-25T03:08:28;3.17;;;2.20;;
18818;SDS011;9537;45.594;9.294;2022-08-25T03:09:30;3.85;;;2.40;;
18818;SDS011;9537;45.594;9.294;2022-08-25T03:10:33;2.80;;;2.25;;
18818;SDS011;9537;45.594;9.294;2022-08-25T03:11:35;3.60;;;2.20;;
18818;SDS011;9537;45.594;9.294;2022-08-25T03:12:37;3.20;;;2.33;;
18818;SDS011;9537;45.594;9.294;2022-08-25T03:13:40;2.70;;;1.90;;
18818;SDS011;9537;45.594;9.294;2022-08-25T03:14:42;4.38;;;2.33;;
18818;SDS011;9537;45.594;9.294;2022-08-25T03:15:44;2.85;;;2.15;;
18818;SDS011;9537;45.594;9.294;2022-08-25T03:16:45;3.20;;;2.13;;
18818;SDS011;9537;45.594;9.294;2022-08-25T03:17:47;2.95;;;2.65;;
18818;SDS011;9537;45.594;9.294;2022-08-25T03:18:48;2.53;;;2.22;;
18818;SDS011;9537;45.594;9.294;2022-08-25T03:19:50;2.42;;;2.22;;
18818;SDS011;9537;45.594;9.294;2022-08-25T03:20:51;3.53;;;2.30;;
18818;SDS011;9537;45.594;9.294;2022-08-25T03:21:53;2.08;;;1.88;;
18818;SDS011;9537;45.594;9.294;2022-08-25T03:22:56;5.00;;;2.25;;
18818;SDS011;9537;45.594;9.294;2022-08-25T03:23:58;4.07;;;2.50;;
18818;SDS011;9537;45.594;9.294;2022-08-25T03:24:59;2.63;;;2.30;;
18818;SDS011;9537;45.594;9.294;2022-08-25T03:26:16;3.00;;;2.42;;
18818;SDS011;9537;45.594;9.294;2022-08-25T03:27:36;2.50;;;2.30;;
18818;SDS011;9537;45.594;9.294;2022-08-25T03:28:38;3.85;;;2.53;;
18818;SDS011;9537;45.594;9.294;2022-08-25T03:29:41;2.63;;;2.13;;
18818;SDS011;9537;45.594;9.294;2022-08-25T03:30:46;3.70;;;2.42;;
18818;SDS011;9537;45.594;9.294;2022-08-25T03:31:47;3.53;;;2.20;;
18818;SDS011;9537;45.594;9.294;2022-08-25T03:32:51;2.55;;;2.17;;
18818;SDS011;9537;45.594;9.294;2022-08-25T03:33:52;4.57;;;2.22;;
18818;SDS011;9537;45.594;9.294;2022-08-25T03:34:55;5.13;;;2.65;;
18818;SDS011;9537;45.594;9.294;2022-08-25T03:35:56;6.25;;;2.55;;
18818;SDS011;9537;45.594;9.294;2022-08-25T03:36:58;5.20;;;2.22;;
18818;SDS011;9537;45.594;9.294;2022-08-25T03:38:01;3.33;;;2.20;;
18818;SDS011;9537;45.594;9.294;2022-08-25T03:39:03;2.42;;;2.08;;
18818;SDS011;9537;45.594;9.294;2022-08-25T03:40:08;2.72;;;2.40;;
18818;SDS011;9537;45.594;9.294;2022-08-25T03:41:29;2.47;;;2.22;;
18818;SDS011;9537;45.594;9.294;2022-08-25T03:42:32;3.55;;;2.50;;
18818;SDS011;9537;45.594;9.294;2022-08-25T03:43:33;3.17;;;2.58;;
18818;SDS011;9537;45.594;9.294;2022-08-25T03:44:35;2.95;;;2.50;;
18818;SDS011;9537;45.594;9.294;2022-08-25T03:45:38;2.67;;;2.47;;
18818;SDS011;9537;45.594;9.294;2022-08-25T03:46:42;2.83;;;2.45;;
18818;SDS011;9537;45.594;9.294;2022-08-25T03:47:46;2.60;;;2.40;;
18818;SDS011;9537;45.594;9.294;2022-08-25T03:48:49;3.25;;;2.42;;
18818;SDS011;9537;45.594;9.294;2022-08-25T03:49:51;4.03;;;2.80;;
18818;SDS011;9537;45.594;9.294;2022-08-25T03:50:53;3.40;;;2.65;;
18818;SDS011;9537;45.594;9.294;2022-08-25T03:51:54;4.30;;;2.58;;
18818;SDS011;9537;45.594;9.294;2022-08-25T03:52:56;4.90;;;2.83;;
18818;SDS011;9537;45.594;9.294;2022-08-25T03:53:58;6.10;;;2.70;;
18818;SDS011;9537;45.594;9.294;2022-08-25T03:55:02;11.63;;;3.30;;
18818;SDS011;9537;45.594;9.294;2022-08-25T03:56:05;26.17;;;4.20;;
18818;SDS011;9537;45.594;9.294;2022-08-25T03:57:08;31.27;;;4.50;;
18818;SDS011;9537;45.594;9.294;2022-08-25T03:58:10;25.13;;;4.00;;
18818;SDS011;9537;45.594;9.294;2022-08-25T03:59:12;27.70;;;4.03;;
18818;SDS011;9537;45.594;9.294;2022-08-25T04:00:14;13.55;;;3.28;;
18818;SDS011;9537;45.594;9.294;2022-08-25T04:01:16;9.77;;;3.00;;
18818;SDS011;9537;45.594;9.294;2022-08-25T04:02:18;9.38;;;3.40;;
18818;SDS011;9537;45.594;9.294;2022-08-25T04:03:20;6.05;;;2.70;;
18818;SDS011;9537;45.594;9.294;2022-08-25T04:04:21;5.05;;;2.67;;
18818;SDS011;9537;45.594;9.294;2022-08-25T04:05:23;5.07;;;2.60;;
18818;SDS011;9537;45.594;9.294;2022-08-25T04:06:24;2.55;;;2.30;;
18818;SDS011;9537;45.594;9.294;2022-08-25T04:07:26;2.78;;;2.17;;
18818;SDS011;9537;45.594;9.294;2022-08-25T04:08:27;6.72;;;2.28;;
18818;SDS011;9537;45.594;9.294;2022-08-25T04:09:29;4.85;;;2.42;;
18818;SDS011;9537;45.594;9.294;2022-08-25T04:10:30;3.55;;;2.60;;
18818;SDS011;9537;45.594;9.294;2022-08-25T04:11:33;2.50;;;2.30;;
18818;SDS011;9537;45.594;9.294;2022-08-25T04:12:36;2.75;;;2.50;;
18818;SDS011;9537;45.594;9.294;2022-08-25T04:13:38;4.03;;;2.40;;
18818;SDS011;9537;45.594;9.294;2022-08-25T04:14:39;4.00;;;2.25;;
18818;SDS011;9537;45.594;9.294;2022-08-25T04:17:39;3.17;;;2.28;;
18818;SDS011;9537;45.594;9.294;2022-08-25T04:18:41;2.75;;;2.10;;
18818;SDS011;9537;45.594;9.294;2022-08-25T04:19:43;4.55;;;2.63;;
18818;SDS011;9537;45.594;9.294;2022-08-25T04:20:45;5.07;;;2.40;;
18818;SDS011;9537;45.594;9.294;2022-08-25T04:21:46;2.42;;;2.22;;
18818;SDS011;9537;45.594;9.294;2022-08-25T04:22:49;3.10;;;2.72;;
18818;SDS011;9537;45.594;9.294;2022-08-25T04:23:50;2.92;;;2.50;;
18818;SDS011;9537;45.594;9.294;2022-08-25T04:24:53;3.13;;;2.28;;
18818;SDS011;9537;45.594;9.294;2022-08-25T04:25:54;5.05;;;2.38;;
18818;SDS011;9537;45.594;9.294;2022-08-25T04:26:56;2.45;;;2.00;;
18818;SDS011;9537;45.594;9.294;2022-08-25T04:27:59;3.20;;;2.33;;
18818;SDS011;9537;45.594;9.294;2022-08-25T04:29:03;2.85;;;2.30;;
18818;SDS011;9537;45.594;9.294;2022-08-25T04:30:05;4.72;;;2.35;;
18818;SDS011;9537;45.594;9.294;2022-08-25T04:31:08;2.80;;;2.55;;
18818;SDS011;9537;45.594;9.294;2022-08-25T04:32:11;3.05;;;2.10;;
18818;SDS011;9537;45.594;9.294;2022-08-25T04:33:13;3.63;;;2.72;;
18818;SDS011;9537;45.594;9.294;2022-08-25T04:34:14;2.85;;;2.40;;
18818;SDS011;9537;45.594;9.294;2022-08-25T04:35:17;4.53;;;3.05;;
18818;SDS011;9537;45.594;9.294;2022-08-25T04:36:18;5.85;;;2.40;;
18818;SDS011;9537;45.594;9.294;2022-08-25T04:37:20;4.95;;;2.30;;
18818;SDS011;9537;45.594;9.294;2022-08-25T04:38:22;4.35;;;2.65;;
18818;SDS011;9537;45.594;9.294;2022-08-25T04:39:24;2.80;;;2.25;;
18818;SDS011;9537;45.594;9.294;2022-08-25T04:40:25;7.82;;;2.40;;
18818;SDS011;9537;45.594;9.294;2022-08-25T04:41:27;5.70;;;2.83;;
18818;SDS011;9537;45.594;9.294;2022-08-25T04:42:29;4.38;;;2.47;;
18818;SDS011;9537;45.594;9.294;2022-08-25T04:43:33;4.68;;;2.35;;
18818;SDS011;9537;45.594;9.294;2022-08-25T04:44:34;3.92;;;2.50;;
18818;SDS011;9537;45.594;9.294;2022-08-25T04:45:37;3.65;;;2.50;;
18818;SDS011;9537;45.594;9.294;2022-08-25T04:46:38;3.42;;;2.10;;
18818;SDS011;9537;45.594;9.294;2022-08-25T04:47:40;3.22;;;2.70;;
18818;SDS011;9537;45.594;9.294;2022-08-25T04:48:41;4.38;;;2.33;;
18818;SDS011;9537;45.594;9.294;2022-08-25T04:51:41;2.50;;;2.13;;
18818;SDS011;9537;45.594;9.294;2022-08-25T04:52:43;3.03;;;2.53;;
18818;SDS011;9537;45.594;9.294;2022-08-25T04:53:44;5.38;;;2.60;;
18818;SDS011;9537;45.594;9.294;2022-08-25T04:54:46;2.78;;;2.58;;
18818;SDS011;9537;45.594;9.294;2022-08-25T04:55:47;3.47;;;2.60;;
18818;SDS011;9537;45.594;9.294;2022-08-25T04:56:50;5.15;;;2.47;;
18818;SDS011;9537;45.594;9.294;2022-08-25T04:57:52;2.80;;;2.45;;
18818;SDS011;9537;45.594;9.294;2022-08-25T04:58:56;6.13;;;2.45;;
18818;SDS011;9537;45.594;9.294;2022-08-25T05:00:00;2.97;;;2.40;;
18818;SDS011;9537;45.594;9.294;2022-08-25T05:01:03;3.58;;;2.70;;
18818;SDS011;9537;45.594;9.294;2022-08-25T05:02:04;4.78;;;2.95;;
18818;SDS011;9537;45.594;9.294;2022-08-25T05:03:07;3.50;;;2.70;;
18818;SDS011;9537;45.594;9.294;2022-08-25T05:04:09;4.38;;;2.55;;
18818;SDS011;9537;45.594;9.294;2022-08-25T05:05:14;4.38;;;2.55;;
18818;SDS011;9537;45.594;9.294;2022-08-25T05:06:15;3.70;;;2.90;;
18818;SDS011;9537;45.594;9.294;2022-08-25T05:07:17;7.22;;;2.55;;
18818;SDS011;9537;45.594;9.294;2022-08-25T05:08:19;2.70;;;2.50;;
18818;SDS011;9537;45.594;9.294;2022-08-25T05:09:20;5.85;;;2.90;;
18818;SDS011;9537;45.594;9.294;2022-08-25T05:10:23;2.58;;;2.38;;
18818;SDS011;9537;45.594;9.294;2022-08-25T05:11:24;2.97;;;2.70;;
18818;SDS011;9537;45.594;9.294;2022-08-25T05:12:27;2.67;;;2.40;;
18818;SDS011;9537;45.594;9.294;2022-08-25T05:13:28;2.58;;;2.38;;
18818;SDS011;9537;45.594;9.294;2022-08-25T05:14:31;4.47;;;2.78;;
18818;SDS011;9537;45.594;9.294;2022-08-25T05:15:33;4.57;;;2.40;;
18818;SDS011;9537;45.594;9.294;2022-08-25T05:16:54;4.50;;;2.85;;
18818;SDS011;9537;45.594;9.294;2022-08-25T05:17:57;4.60;;;2.70;;
18818;SDS011;9537;45.594;9.294;2022-08-25T05:18:58;3.10;;;2.80;;
18818;SDS011;9537;45.594;9.294;2022-08-25T05:20:01;2.95;;;2.65;;
18818;SDS011;9537;45.594;9.294;2022-08-25T05:21:03;4.75;;;2.95;;
18818;SDS011;9537;45.594;9.294;2022-08-25T05:22:06;4.20;;;2.72;;
18818;SDS011;9537;45.594;9.294;2022-08-25T05:23:07;3.85;;;2.83;;
18818;SDS011;9537;45.594;9.294;2022-08-25T05:26:08;4.20;;;2.95;;
18818;SDS011;9537;45.594;9.294;2022-08-25T05:27:11;5.45;;;3.10;;
18818;SDS011;9537;45.594;9.294;2022-08-25T05:28:13;4.93;;;2.50;;
18818;SDS011;9537;45.594;9.294;2022-08-25T05:29:17;2.95;;;2.58;;
18818;SDS011;9537;45.594;9.294;2022-08-25T05:30:20;3.97;;;2.60;;
18818;SDS011;9537;45.594;9.294;2022-08-25T05:31:22;3.35;;;2.85;;
18818;SDS011;9537;45.594;9.294;2022-08-25T05:32:25;2.95;;;2.38;;
18818;SDS011;9537;45.594;9.294;2022-08-25T05:33:26;4.32;;;2.45;;
18818;SDS011;9537;45.594;9.294;2022-08-25T05:34:29;3.92;;;2.70;;
18818;SDS011;9537;45.594;9.294;2022-08-25T05:35:30;6.65;;;2.88;;
18818;SDS011;9537;45.594;9.294;2022-08-25T05:36:32;5.65;;;2.40;;
18818;SDS011;9537;45.594;9.294;2022-08-25T05:37:35;5.47;;;2.70;;
18818;SDS011;9537;45.594;9.294;2022-08-25T05:38:37;4.38;;;2.60;;
18818;SDS011;9537;45.594;9.294;2022-08-25T05:39:41;5.45;;;2.90;;
18818;SDS011;9537;45.594;9.294;2022-08-25T05:40:43;4.63;;;2.83;;
18818;SDS011;9537;45.594;9.294;2022-08-25T05:41:44;2.85;;;2.50;;
18818;SDS011;9537;45.594;9.294;2022-08-25T05:42:47;6.22;;;2.85;;
18818;SDS011;9537;45.594;9.294;2022-08-25T05:43:48;4.22;;;3.83;;
18818;SDS011;9537;45.594;9.294;2022-08-25T05:44:50;2.78;;;2.50;;
18818;SDS011;9537;45.594;9.294;2022-08-25T05:45:54;3.97;;;3.20;;
18818;SDS011;9537;45.594;9.294;2022-08-25T05:46:55;4.60;;;3.15;;
18818;SDS011;9537;45.594;9.294;2022-08-25T05:47:57;3.60;;;2.50;;
18818;SDS011;9537;45.594;9.294;2022-08-25T05:48:58;5.20;;;2.72;;
18818;SDS011;9537;45.594;9.294;2022-08-25T05:50:01;4.20;;;2.70;;
18818;SDS011;9537;45.594;9.294;2022-08-25T05:51:03;5.05;;;3.00;;
18818;SDS011;9537;45.594;9.294;2022-08-25T05:52:06;4.85;;;2.95;;
18818;SDS011;9537;45.594;9.294;2022-08-25T05:53:08;4.72;;;2.65;;
18818;SDS011;9537;45.594;9.294;2022-08-25T05:54:10;4.38;;;2.67;;
18818;SDS011;9537;45.594;9.294;2022-08-25T05:55:12;4.55;;;2.70;;
18818;SDS011;9537;45.594;9.294;2022-08-25T05:56:14;3.15;;;2.60;;
18818;SDS011;9537;45.594;9.294;2022-08-25T05:57:17;2.97;;;2.47;;
18818;SDS011;9537;45.594;9.294;2022-08-25T06:00:16;4.55;;;2.60;;
18818;SDS011;9537;45.594;9.294;2022-08-25T06:01:22;3.80;;;2.80;;
18818;SDS011;9537;45.594;9.294;2022-08-25T06:02:45;3.58;;;2.63;;
18818;SDS011;9537;45.594;9.294;2022-08-25T06:03:49;3.28;;;2.72;;
18818;SDS011;9537;45.594;9.294;2022-08-25T06:04:53;3.92;;;2.92;;
18818;SDS011;9537;45.594;9.294;2022-08-25T06:06:03;3.42;;;2.47;;
18818;SDS011;9537;45.594;9.294;2022-08-25T06:07:05;3.08;;;2.65;;
18818;SDS011;9537;45.594;9.294;2022-08-25T06:08:07;6.43;;;2.60;;
18818;SDS011;9537;45.594;9.294;2022-08-25T06:09:09;3.28;;;2.60;;
18818;SDS011;9537;45.594;9.294;2022-08-25T06:10:10;5.00;;;2.90;;
18818;SDS011;9537;45.594;9.294;2022-08-25T06:11:14;3.83;;;2.90;;
18818;SDS011;9537;45.594;9.294;2022-08-25T06:12:16;4.55;;;3.30;;
18818;SDS011;9537;45.594;9.294;2022-08-25T06:13:20;3.13;;;2.72;;
18818;SDS011;9537;45.594;9.294;2022-08-25T06:14:22;3.30;;;2.90;;
18818;SDS011;9537;45.594;9.294;2022-08-25T06:15:24;3.58;;;2.92;;
18818;SDS011;9537;45.594;9.294;2022-08-25T06:16:28;3.00;;;2.63;;
18818;SDS011;9537;45.594;9.294;2022-08-25T06:17:30;2.97;;;2.47;;
18818;SDS011;9537;45.594;9.294;2022-08-25T06:18:31;2.75;;;2.45;;
18818;SDS011;9537;45.594;9.294;2022-08-25T06:19:33;7.22;;;2.80;;
18818;SDS011;9537;45.594;9.294;2022-08-25T06:20:34;4.63;;;3.00;;
18818;SDS011;9537;45.594;9.294;2022-08-25T06:21:36;4.35;;;2.90;;
18818;SDS011;9537;45.594;9.294;2022-08-25T06:22:38;5.68;;;2.63;;
18818;SDS011;9537;45.594;9.294;2022-08-25T06:23:41;10.20;;;2.90;;
18818;SDS011;9537;45.594;9.294;2022-08-25T06:24:42;5.03;;;3.20;;
18818;SDS011;9537;45.594;9.294;2022-08-25T06:25:47;4.25;;;3.08;;
18818;SDS011;9537;45.594;9.294;2022-08-25T06:26:49;5.63;;;3.30;;
18818;SDS011;9537;45.594;9.294;2022-08-25T06:27:51;4.50;;;2.85;;
18818;SDS011;9537;45.594;9.294;2022-08-25T06:28:53;3.25;;;2.58;;
18818;SDS011;9537;45.594;9.294;2022-08-25T06:29:55;8.48;;;3.67;;
18818;SDS011;9537;45.594;9.294;2022-08-25T06:30:56;7.50;;;3.25;;
18818;SDS011;9537;45.594;9.294;2022-08-25T06:32:00;4.63;;;2.95;;